UAL122 KEWR-EGLL
Flight info
| Callsign | UAL122 |
|---|---|
| Flight time | 6h 57m |
| Altitude | 33000 |
| Route | MERIT DCT HFD DCT PUT DCT BOS DCT BRADD N261B NICSO/M080F340 DCT 48N050W 50N040W 52N030W 53N020W DCT DOGAL DCT BEXET/N0457F350 DCT ERABI DCT ABAGU DCT ENJEX DCT AVZAC DCT INFEC DCT JETZI DCT AMFUL DCT ORZEB/N0407F230 P2 SIRIC |
| Aircraft | B763/H-SDE3FGHIM3RWXY/LB1 |
Departure
| Time | 2026-04-24 14:39 |
|---|---|
| Airport | Newark Liberty International Airport (KEWR) |
Arrival
| Time | 2026-04-24 21:37 |
|---|---|
| Airport | London Heathrow Airport (EGLL) |
| Time | Latitude | Longitude | Altitude | Speed | Heading |
|---|---|---|---|---|---|
| 2026-04-24 14:08 | 40.69740 | -74.17615 | 29 ft | 0 kts | 135° |
| 2026-04-24 14:23 | 40.69747 | -74.17625 | 29 ft | 2 kts | 135° |
| 2026-04-24 14:23 | 40.69758 | -74.17639 | 29 ft | 2 kts | 135° |
| 2026-04-24 14:24 | 40.69768 | -74.17653 | 29 ft | 1 kts | 135° |
| 2026-04-24 14:24 | 40.69775 | -74.17662 | 29 ft | 2 kts | 124° |
| 2026-04-24 14:24 | 40.69780 | -74.17680 | 29 ft | 2 kts | 91° |
| 2026-04-24 14:24 | 40.69778 | -74.17699 | 29 ft | 2 kts | 63° |
| 2026-04-24 14:25 | 40.69771 | -74.17711 | 29 ft | 0 kts | 40° |
| 2026-04-24 14:25 | 40.69768 | -74.17714 | 29 ft | 0 kts | 39° |
| 2026-04-24 14:27 | 40.69774 | -74.17707 | 29 ft | 3 kts | 40° |
| 2026-04-24 14:28 | 40.69801 | -74.17677 | 29 ft | 6 kts | 40° |
| 2026-04-24 14:28 | 40.69833 | -74.17641 | 29 ft | 5 kts | 41° |
| 2026-04-24 14:28 | 40.69874 | -74.17593 | 29 ft | 11 kts | 42° |
| 2026-04-24 14:28 | 40.69940 | -74.17507 | 29 ft | 13 kts | 47° |
| 2026-04-24 14:29 | 40.69954 | -74.17406 | 29 ft | 10 kts | 109° |
| 2026-04-24 14:29 | 40.69919 | -74.17320 | 29 ft | 12 kts | 122° |
| 2026-04-24 14:29 | 40.69852 | -74.17211 | 29 ft | 16 kts | 135° |
| 2026-04-24 14:29 | 40.69771 | -74.17118 | 29 ft | 14 kts | 143° |
| 2026-04-24 14:30 | 40.69691 | -74.17054 | 29 ft | 12 kts | 154° |
| 2026-04-24 14:30 | 40.69595 | -74.17005 | 29 ft | 17 kts | 164° |
| 2026-04-24 14:30 | 40.69460 | -74.16977 | 29 ft | 19 kts | 178° |
| 2026-04-24 14:30 | 40.69329 | -74.16986 | 29 ft | 17 kts | 192° |
| 2026-04-24 14:31 | 40.69220 | -74.17037 | 29 ft | 15 kts | 205° |
| 2026-04-24 14:31 | 40.69127 | -74.17098 | 29 ft | 13 kts | 206° |
| 2026-04-24 14:31 | 40.69045 | -74.17149 | 29 ft | 11 kts | 205° |
| 2026-04-24 14:31 | 40.68975 | -74.17194 | 29 ft | 10 kts | 206° |
| 2026-04-24 14:32 | 40.68918 | -74.17230 | 29 ft | 8 kts | 205° |
| 2026-04-24 14:32 | 40.68841 | -74.17278 | 29 ft | 14 kts | 205° |
| 2026-04-24 14:32 | 40.68754 | -74.17333 | 29 ft | 13 kts | 206° |
| 2026-04-24 14:32 | 40.68678 | -74.17382 | 29 ft | 11 kts | 205° |
| 2026-04-24 14:33 | 40.68587 | -74.17439 | 29 ft | 17 kts | 206° |
| 2026-04-24 14:33 | 40.68465 | -74.17517 | 29 ft | 22 kts | 206° |
| 2026-04-24 14:33 | 40.68319 | -74.17609 | 29 ft | 22 kts | 205° |
| 2026-04-24 14:33 | 40.68185 | -74.17693 | 29 ft | 20 kts | 206° |
| 2026-04-24 14:34 | 40.68063 | -74.17771 | 29 ft | 18 kts | 206° |
| 2026-04-24 14:34 | 40.67954 | -74.17840 | 29 ft | 16 kts | 205° |
| 2026-04-24 14:34 | 40.67859 | -74.17899 | 29 ft | 13 kts | 205° |
| 2026-04-24 14:34 | 40.67781 | -74.17949 | 29 ft | 11 kts | 206° |
| 2026-04-24 14:35 | 40.67715 | -74.17992 | 29 ft | 9 kts | 206° |
| 2026-04-24 14:35 | 40.67659 | -74.18026 | 29 ft | 7 kts | 205° |
| 2026-04-24 14:35 | 40.67616 | -74.18040 | 29 ft | 0 kts | 177° |
| 2026-04-24 14:36 | 40.67615 | -74.18040 | 29 ft | 1 kts | 176° |
| 2026-04-24 14:37 | 40.67580 | -74.18014 | 29 ft | 10 kts | 134° |
| 2026-04-24 14:37 | 40.67578 | -74.17921 | 29 ft | 10 kts | 42° |
| 2026-04-24 14:37 | 40.67624 | -74.17889 | 29 ft | 0 kts | 25° |
| 2026-04-24 14:38 | 40.67630 | -74.17886 | 29 ft | 7 kts | 25° |
| 2026-04-24 14:38 | 40.67811 | -74.17771 | 29 ft | 51 kts | 26° |
| 2026-04-24 14:38 | 40.68267 | -74.17481 | 29 ft | 93 kts | 26° |
| 2026-04-24 14:38 | 40.68989 | -74.17024 | 29 ft | 133 kts | 26° |
| 2026-04-24 14:39 | 40.69945 | -74.16417 | 36 ft | 170 kts | 26° |
| 2026-04-24 14:39 | 40.71067 | -74.15681 | 282 ft | 186 kts | 27° |
| 2026-04-24 14:39 | 40.72214 | -74.14900 | 942 ft | 185 kts | 27° |
| 2026-04-24 14:39 | 40.73290 | -74.14043 | 1507 ft | 184 kts | 40° |
| 2026-04-24 14:40 | 40.74069 | -74.12624 | 1671 ft | 203 kts | 65° |
| 2026-04-24 14:40 | 40.74649 | -74.10921 | 2154 ft | 200 kts | 52° |
| 2026-04-24 14:40 | 40.75618 | -74.09592 | 2447 ft | 207 kts | 33° |
| 2026-04-24 14:40 | 40.76859 | -74.08546 | 2756 ft | 216 kts | 28° |
| 2026-04-24 14:41 | 40.78169 | -74.07556 | 3174 ft | 222 kts | 28° |
| 2026-04-24 14:41 | 40.79521 | -74.06527 | 3704 ft | 224 kts | 27° |
| 2026-04-24 14:41 | 40.80776 | -74.05304 | 4201 ft | 232 kts | 46° |
| 2026-04-24 14:41 | 40.81523 | -74.03346 | 4672 ft | 244 kts | 66° |
| 2026-04-24 14:42 | 40.82014 | -74.01190 | 5108 ft | 253 kts | 67° |
| 2026-04-24 14:42 | 40.82542 | -73.98843 | 5265 ft | 276 kts | 68° |
| 2026-04-24 14:42 | 40.83095 | -73.96389 | 5793 ft | 285 kts | 67° |
| 2026-04-24 14:42 | 40.83646 | -73.93851 | 6425 ft | 291 kts | 67° |
| 2026-04-24 14:43 | 40.84182 | -73.91250 | 7043 ft | 297 kts | 67° |
| 2026-04-24 14:43 | 40.84707 | -73.88616 | 7697 ft | 300 kts | 67° |
| 2026-04-24 14:43 | 40.85229 | -73.85925 | 8330 ft | 306 kts | 67° |
| 2026-04-24 14:43 | 40.85740 | -73.83209 | 8984 ft | 310 kts | 67° |
| 2026-04-24 14:44 | 40.86254 | -73.80421 | 9560 ft | 317 kts | 67° |
| 2026-04-24 14:44 | 40.86759 | -73.77563 | 10037 ft | 328 kts | 67° |
| 2026-04-24 14:44 | 40.87287 | -73.74604 | 9994 ft | 332 kts | 67° |
| 2026-04-24 14:44 | 40.87793 | -73.71700 | 9984 ft | 319 kts | 67° |
| 2026-04-24 14:45 | 40.88358 | -73.68911 | 9960 ft | 301 kts | 53° |
| 2026-04-24 14:45 | 40.89498 | -73.66791 | 10022 ft | 272 kts | 26° |
| 2026-04-24 14:45 | 40.91118 | -73.65654 | 10189 ft | 268 kts | 10° |
| 2026-04-24 14:45 | 40.92878 | -73.64568 | 10393 ft | 298 kts | 20° |
| 2026-04-24 14:46 | 40.94722 | -73.62966 | 10458 ft | 330 kts | 26° |
| 2026-04-24 14:46 | 40.96577 | -73.61105 | 11119 ft | 339 kts | 28° |
| 2026-04-24 14:46 | 40.98433 | -73.59147 | 11761 ft | 347 kts | 29° |
| 2026-04-24 14:46 | 41.00286 | -73.57112 | 12554 ft | 348 kts | 29° |
| 2026-04-24 14:47 | 41.02142 | -73.55046 | 13192 ft | 354 kts | 29° |
| 2026-04-24 14:47 | 41.04038 | -73.52909 | 13845 ft | 358 kts | 29° |
| 2026-04-24 14:47 | 41.05916 | -73.50781 | 14562 ft | 359 kts | 30° |
| 2026-04-24 14:47 | 41.07799 | -73.48642 | 15122 ft | 364 kts | 30° |
| 2026-04-24 14:48 | 41.09731 | -73.46439 | 15781 ft | 366 kts | 30° |
| 2026-04-24 14:48 | 41.11673 | -73.44226 | 16335 ft | 371 kts | 30° |
| 2026-04-24 14:48 | 41.13600 | -73.42018 | 17075 ft | 370 kts | 29° |
| 2026-04-24 14:48 | 41.15579 | -73.39763 | 17520 ft | 377 kts | 30° |
| 2026-04-24 14:49 | 41.17532 | -73.37519 | 18260 ft | 375 kts | 30° |
| 2026-04-24 14:49 | 41.19525 | -73.35244 | 18719 ft | 382 kts | 30° |
| 2026-04-24 14:49 | 41.21543 | -73.32929 | 19335 ft | 383 kts | 30° |
| 2026-04-24 14:49 | 41.23557 | -73.30617 | 19786 ft | 389 kts | 30° |
| 2026-04-24 14:50 | 41.25605 | -73.28264 | 20468 ft | 387 kts | 31° |
| 2026-04-24 14:50 | 41.27659 | -73.25904 | 20887 ft | 393 kts | 30° |
| 2026-04-24 14:50 | 41.29728 | -73.23525 | 21409 ft | 395 kts | 31° |
| 2026-04-24 14:50 | 41.31796 | -73.21143 | 21961 ft | 396 kts | 30° |
| 2026-04-24 14:51 | 41.33889 | -73.18734 | 22328 ft | 401 kts | 31° |
| 2026-04-24 14:51 | 41.35974 | -73.16324 | 22893 ft | 401 kts | 31° |
| 2026-04-24 14:51 | 41.37973 | -73.13656 | 23217 ft | 418 kts | 41° |
| 2026-04-24 14:51 | 41.39661 | -73.10420 | 23574 ft | 435 kts | 49° |
| 2026-04-24 14:52 | 41.41193 | -73.06960 | 24121 ft | 433 kts | 49° |
| 2026-04-24 14:52 | 41.42725 | -73.03522 | 24485 ft | 437 kts | 49° |
| 2026-04-24 14:52 | 41.44271 | -73.00034 | 24863 ft | 439 kts | 49° |
| 2026-04-24 14:52 | 41.45831 | -72.96500 | 25303 ft | 440 kts | 49° |
| 2026-04-24 14:53 | 41.47362 | -72.93028 | 25606 ft | 444 kts | 49° |
| 2026-04-24 14:53 | 41.48947 | -72.89432 | 25925 ft | 448 kts | 49° |
| 2026-04-24 14:53 | 41.50501 | -72.85896 | 26367 ft | 447 kts | 49° |
| 2026-04-24 14:53 | 41.52087 | -72.82287 | 26692 ft | 450 kts | 49° |
| 2026-04-24 14:54 | 41.53673 | -72.78674 | 27015 ft | 452 kts | 50° |
| 2026-04-24 14:54 | 41.55246 | -72.75082 | 27356 ft | 454 kts | 50° |
| 2026-04-24 14:54 | 41.56836 | -72.71450 | 27669 ft | 456 kts | 50° |
| 2026-04-24 14:54 | 41.58436 | -72.67790 | 27947 ft | 458 kts | 50° |
| 2026-04-24 14:55 | 41.60033 | -72.64131 | 28219 ft | 461 kts | 50° |
| 2026-04-24 14:55 | 41.61646 | -72.60431 | 28568 ft | 462 kts | 50° |
| 2026-04-24 14:55 | 41.63263 | -72.56718 | 28867 ft | 463 kts | 50° |
| 2026-04-24 14:55 | 41.64902 | -72.53001 | 29099 ft | 464 kts | 49° |
| 2026-04-24 14:56 | 41.66576 | -72.49315 | 29255 ft | 469 kts | 50° |
| 2026-04-24 14:56 | 41.68253 | -72.45592 | 29582 ft | 468 kts | 50° |
| 2026-04-24 14:56 | 41.69938 | -72.41858 | 29768 ft | 471 kts | 50° |
| 2026-04-24 14:56 | 41.71605 | -72.38147 | 30084 ft | 471 kts | 50° |
| 2026-04-24 14:57 | 41.73309 | -72.34364 | 30208 ft | 474 kts | 51° |
| 2026-04-24 14:57 | 41.75015 | -72.30557 | 30474 ft | 474 kts | 51° |
| 2026-04-24 14:57 | 41.76727 | -72.26744 | 30561 ft | 478 kts | 51° |
| 2026-04-24 14:57 | 41.78428 | -72.22943 | 30800 ft | 478 kts | 51° |
| 2026-04-24 14:58 | 41.80160 | -72.19070 | 30977 ft | 479 kts | 51° |
| 2026-04-24 14:58 | 41.81873 | -72.15231 | 31119 ft | 482 kts | 51° |
| 2026-04-24 14:58 | 41.83587 | -72.11392 | 31243 ft | 483 kts | 52° |
| 2026-04-24 14:58 | 41.85312 | -72.07515 | 31541 ft | 481 kts | 51° |
| 2026-04-24 14:59 | 41.87020 | -72.03677 | 31642 ft | 483 kts | 52° |
| 2026-04-24 14:59 | 41.88727 | -71.99834 | 31889 ft | 481 kts | 52° |
| 2026-04-24 14:59 | 41.90431 | -71.95993 | 32101 ft | 481 kts | 52° |
| 2026-04-24 14:59 | 41.92136 | -71.92145 | 32312 ft | 481 kts | 52° |
| 2026-04-24 15:00 | 41.93843 | -71.88289 | 32470 ft | 481 kts | 52° |
| 2026-04-24 15:00 | 41.95531 | -71.84473 | 32779 ft | 477 kts | 51° |
| 2026-04-24 15:00 | 41.97292 | -71.80744 | 32896 ft | 471 kts | 50° |
| 2026-04-24 15:01 | 42.00820 | -71.73351 | 32881 ft | 471 kts | 50° |
| 2026-04-24 15:01 | 42.04377 | -71.65868 | 32896 ft | 473 kts | 50° |
| 2026-04-24 15:02 | 42.07902 | -71.58424 | 32902 ft | 472 kts | 50° |
| 2026-04-24 15:02 | 42.11424 | -71.50970 | 32916 ft | 472 kts | 50° |
| 2026-04-24 15:03 | 42.14956 | -71.43474 | 32919 ft | 471 kts | 49° |
| 2026-04-24 15:03 | 42.18443 | -71.36054 | 32918 ft | 469 kts | 50° |
| 2026-04-24 15:04 | 42.21935 | -71.28610 | 32924 ft | 469 kts | 50° |
| 2026-04-24 15:04 | 42.25409 | -71.21186 | 32920 ft | 472 kts | 50° |
| 2026-04-24 15:05 | 42.28914 | -71.13672 | 32921 ft | 469 kts | 50° |
| 2026-04-24 15:05 | 42.32363 | -71.06262 | 32921 ft | 468 kts | 50° |
| 2026-04-24 15:06 | 42.35587 | -70.98624 | 32921 ft | 477 kts | 60° |
| 2026-04-24 15:06 | 42.37663 | -70.89981 | 32907 ft | 486 kts | 65° |
| 2026-04-24 15:07 | 42.39595 | -70.81242 | 32905 ft | 485 kts | 65° |
| 2026-04-24 15:07 | 42.41502 | -70.72478 | 32912 ft | 487 kts | 65° |
| 2026-04-24 15:08 | 42.43394 | -70.63718 | 32910 ft | 488 kts | 65° |
| 2026-04-24 15:08 | 42.45285 | -70.54909 | 32912 ft | 487 kts | 65° |
| 2026-04-24 15:09 | 42.47150 | -70.46179 | 32913 ft | 485 kts | 65° |
| 2026-04-24 15:09 | 42.49023 | -70.37386 | 32903 ft | 487 kts | 65° |
| 2026-04-24 15:10 | 42.50879 | -70.28629 | 32896 ft | 485 kts | 66° |
| 2026-04-24 15:10 | 42.52741 | -70.19820 | 32883 ft | 488 kts | 65° |
| 2026-04-24 15:11 | 42.54600 | -70.10975 | 32906 ft | 489 kts | 65° |
| 2026-04-24 15:11 | 42.56444 | -70.02156 | 32906 ft | 487 kts | 65° |
| 2026-04-24 15:12 | 42.58287 | -69.93318 | 32913 ft | 488 kts | 65° |
| 2026-04-24 15:12 | 42.61037 | -69.80057 | 32890 ft | 488 kts | 65° |
| 2026-04-24 15:13 | 42.62857 | -69.71227 | 32901 ft | 486 kts | 65° |
| 2026-04-24 15:13 | 42.64656 | -69.62465 | 32898 ft | 485 kts | 65° |
| 2026-04-24 15:14 | 42.66455 | -69.53670 | 32895 ft | 487 kts | 65° |
| 2026-04-24 15:14 | 42.68261 | -69.44788 | 32887 ft | 484 kts | 65° |
| 2026-04-24 15:15 | 42.70037 | -69.36033 | 32894 ft | 484 kts | 65° |
| 2026-04-24 15:15 | 42.71821 | -69.27191 | 32885 ft | 485 kts | 66° |
| 2026-04-24 15:16 | 42.73581 | -69.18428 | 32878 ft | 482 kts | 66° |
| 2026-04-24 15:16 | 42.75345 | -69.09611 | 32870 ft | 485 kts | 66° |
| 2026-04-24 15:17 | 42.77105 | -69.00770 | 32872 ft | 481 kts | 66° |
| 2026-04-24 15:17 | 42.78837 | -68.92044 | 32874 ft | 483 kts | 66° |
| 2026-04-24 15:18 | 42.80586 | -68.83189 | 32857 ft | 486 kts | 66° |
| 2026-04-24 15:18 | 42.82319 | -68.74355 | 32866 ft | 481 kts | 66° |
| 2026-04-24 15:19 | 42.84042 | -68.65558 | 32850 ft | 484 kts | 66° |
| 2026-04-24 15:19 | 42.85765 | -68.56712 | 32889 ft | 485 kts | 66° |
| 2026-04-24 15:20 | 42.87474 | -68.47895 | 32860 ft | 484 kts | 66° |
| 2026-04-24 15:20 | 42.89183 | -68.39033 | 32878 ft | 482 kts | 66° |
| 2026-04-24 15:21 | 42.90871 | -68.30254 | 32859 ft | 482 kts | 67° |
| 2026-04-24 15:21 | 42.92559 | -68.21428 | 32860 ft | 483 kts | 68° |
| 2026-04-24 15:22 | 42.94245 | -68.12576 | 32856 ft | 486 kts | 68° |
| 2026-04-24 15:23 | 42.96756 | -67.99302 | 32856 ft | 482 kts | 68° |
| 2026-04-24 15:23 | 42.99664 | -67.86315 | 32848 ft | 469 kts | 55° |
| 2026-04-24 15:25 | 43.07742 | -67.67082 | 32849 ft | 469 kts | 54° |
| 2026-04-24 15:26 | 43.15248 | -67.47280 | 32869 ft | 470 kts | 56° |
| 2026-04-24 15:27 | 43.24145 | -67.23438 | 32858 ft | 471 kts | 57° |
| 2026-04-24 15:29 | 43.33023 | -66.99435 | 32857 ft | 471 kts | 57° |
| 2026-04-24 15:31 | 43.41268 | -66.76958 | 32849 ft | 471 kts | 57° |
| 2026-04-24 15:33 | 43.52943 | -66.44813 | 32835 ft | 471 kts | 58° |
| 2026-04-24 15:34 | 43.60202 | -66.24641 | 32827 ft | 473 kts | 59° |
| 2026-04-24 15:35 | 43.67418 | -66.04439 | 32815 ft | 472 kts | 59° |
| 2026-04-24 15:36 | 43.70307 | -65.96308 | 32812 ft | 470 kts | 59° |
| 2026-04-24 15:36 | 43.74595 | -65.84197 | 32808 ft | 470 kts | 59° |
| 2026-04-24 15:37 | 43.77464 | -65.76066 | 32803 ft | 471 kts | 59° |
| 2026-04-24 15:37 | 43.80305 | -65.67988 | 32803 ft | 469 kts | 59° |
| 2026-04-24 15:38 | 43.83155 | -65.59857 | 32800 ft | 470 kts | 59° |
| 2026-04-24 15:38 | 43.85974 | -65.51798 | 32798 ft | 471 kts | 59° |
| 2026-04-24 15:39 | 43.88826 | -65.43616 | 32791 ft | 469 kts | 60° |
| 2026-04-24 15:39 | 43.91644 | -65.35506 | 32794 ft | 468 kts | 60° |
| 2026-04-24 15:40 | 43.94461 | -65.27379 | 32793 ft | 470 kts | 61° |
| 2026-04-24 15:40 | 43.97276 | -65.19230 | 32792 ft | 470 kts | 61° |
| 2026-04-24 15:41 | 44.00087 | -65.11066 | 32789 ft | 470 kts | 61° |
| 2026-04-24 15:41 | 44.02884 | -65.02923 | 32786 ft | 470 kts | 61° |
| 2026-04-24 15:42 | 44.05681 | -64.94752 | 32787 ft | 470 kts | 61° |
| 2026-04-24 15:42 | 44.08482 | -64.86546 | 32789 ft | 469 kts | 61° |
| 2026-04-24 15:43 | 44.11261 | -64.78377 | 32796 ft | 469 kts | 61° |
| 2026-04-24 15:43 | 44.14037 | -64.70197 | 32798 ft | 469 kts | 61° |
| 2026-04-24 15:44 | 44.16810 | -64.61999 | 32798 ft | 469 kts | 62° |
| 2026-04-24 15:44 | 44.19556 | -64.53855 | 32799 ft | 469 kts | 62° |
| 2026-04-24 15:45 | 44.22322 | -64.45627 | 32800 ft | 469 kts | 62° |
| 2026-04-24 15:45 | 44.25071 | -64.37425 | 32800 ft | 468 kts | 62° |
| 2026-04-24 15:46 | 44.27827 | -64.29176 | 32802 ft | 468 kts | 63° |
| 2026-04-24 15:46 | 44.30545 | -64.21014 | 32803 ft | 469 kts | 63° |
| 2026-04-24 15:47 | 44.33290 | -64.12749 | 32803 ft | 469 kts | 63° |
| 2026-04-24 15:47 | 44.36009 | -64.04535 | 32802 ft | 468 kts | 63° |
| 2026-04-24 15:48 | 44.38737 | -63.96267 | 32802 ft | 468 kts | 63° |
| 2026-04-24 15:48 | 44.41430 | -63.88080 | 32800 ft | 468 kts | 63° |
| 2026-04-24 15:49 | 44.44135 | -63.79833 | 32800 ft | 467 kts | 63° |
| 2026-04-24 15:49 | 44.46829 | -63.71594 | 32799 ft | 467 kts | 63° |
| 2026-04-24 15:50 | 44.49514 | -63.63353 | 32803 ft | 467 kts | 63° |
| 2026-04-24 15:50 | 44.52197 | -63.55095 | 32806 ft | 467 kts | 63° |
| 2026-04-24 15:51 | 44.54861 | -63.46872 | 32808 ft | 466 kts | 63° |
| 2026-04-24 15:51 | 44.57538 | -63.38578 | 32810 ft | 466 kts | 63° |
| 2026-04-24 15:52 | 44.60187 | -63.30350 | 32807 ft | 466 kts | 64° |
| 2026-04-24 15:52 | 44.62835 | -63.22097 | 32806 ft | 466 kts | 64° |
| 2026-04-24 15:53 | 44.65486 | -63.13806 | 32801 ft | 465 kts | 64° |
| 2026-04-24 15:53 | 44.68122 | -63.05539 | 32800 ft | 465 kts | 64° |
| 2026-04-24 15:54 | 44.70742 | -62.97295 | 32798 ft | 465 kts | 64° |
| 2026-04-24 15:54 | 44.73371 | -62.88992 | 32802 ft | 465 kts | 64° |
| 2026-04-24 15:55 | 44.75977 | -62.80742 | 32799 ft | 464 kts | 64° |
| 2026-04-24 15:55 | 44.78583 | -62.72461 | 32802 ft | 464 kts | 64° |
| 2026-04-24 15:56 | 44.81193 | -62.64145 | 32801 ft | 465 kts | 64° |
| 2026-04-24 15:56 | 44.83775 | -62.55891 | 32797 ft | 464 kts | 64° |
| 2026-04-24 15:57 | 44.86360 | -62.47597 | 32805 ft | 464 kts | 64° |
| 2026-04-24 15:57 | 44.88943 | -62.39286 | 32806 ft | 464 kts | 65° |
| 2026-04-24 15:58 | 44.91509 | -62.31000 | 32808 ft | 464 kts | 65° |
| 2026-04-24 15:58 | 44.94072 | -62.22700 | 32810 ft | 464 kts | 65° |
| 2026-04-24 15:59 | 44.96643 | -62.14345 | 32791 ft | 463 kts | 65° |
| 2026-04-24 15:59 | 44.99182 | -62.06068 | 32804 ft | 463 kts | 65° |
| 2026-04-24 16:00 | 45.01747 | -61.97677 | 32804 ft | 463 kts | 65° |
| 2026-04-24 16:00 | 45.04280 | -61.89366 | 32798 ft | 463 kts | 65° |
| 2026-04-24 16:01 | 45.06806 | -61.81050 | 32800 ft | 463 kts | 65° |
| 2026-04-24 16:01 | 45.09334 | -61.72701 | 32797 ft | 462 kts | 65° |
| 2026-04-24 16:02 | 45.11858 | -61.64339 | 32799 ft | 462 kts | 66° |
| 2026-04-24 16:02 | 45.14370 | -61.55986 | 32796 ft | 462 kts | 66° |
| 2026-04-24 16:03 | 45.16866 | -61.47658 | 32795 ft | 462 kts | 66° |
| 2026-04-24 16:03 | 45.19348 | -61.39352 | 32802 ft | 461 kts | 66° |
| 2026-04-24 16:04 | 45.21846 | -61.30962 | 32800 ft | 462 kts | 66° |
| 2026-04-24 16:04 | 45.24326 | -61.22607 | 32803 ft | 461 kts | 66° |
| 2026-04-24 16:05 | 45.28044 | -61.10029 | 32794 ft | 462 kts | 66° |
| 2026-04-24 16:06 | 45.31733 | -60.97485 | 32798 ft | 462 kts | 66° |
| 2026-04-24 16:07 | 45.35425 | -60.84869 | 32790 ft | 461 kts | 67° |
| 2026-04-24 16:07 | 45.39081 | -60.72311 | 32788 ft | 462 kts | 67° |
| 2026-04-24 16:08 | 45.42749 | -60.59647 | 32780 ft | 461 kts | 67° |
| 2026-04-24 16:09 | 45.46397 | -60.46986 | 32792 ft | 462 kts | 67° |
| 2026-04-24 16:09 | 45.48818 | -60.38550 | 32791 ft | 461 kts | 67° |
| 2026-04-24 16:11 | 45.54830 | -60.17473 | 32789 ft | 462 kts | 68° |
| 2026-04-24 16:11 | 45.57243 | -60.08961 | 32786 ft | 461 kts | 68° |
| 2026-04-24 16:12 | 45.60814 | -59.96312 | 32785 ft | 461 kts | 68° |
| 2026-04-24 16:13 | 45.64388 | -59.83585 | 32784 ft | 461 kts | 68° |
| 2026-04-24 16:14 | 45.69117 | -59.66643 | 32786 ft | 461 kts | 69° |
| 2026-04-24 16:14 | 45.72660 | -59.53869 | 32780 ft | 461 kts | 69° |
| 2026-04-24 16:15 | 45.76158 | -59.41193 | 32780 ft | 460 kts | 69° |
| 2026-04-24 16:16 | 45.79664 | -59.28420 | 32784 ft | 460 kts | 70° |
| 2026-04-24 16:17 | 45.85454 | -59.07177 | 32778 ft | 460 kts | 70° |
| 2026-04-24 16:18 | 45.90076 | -58.90082 | 32780 ft | 460 kts | 70° |
| 2026-04-24 16:19 | 45.93508 | -58.77308 | 32783 ft | 460 kts | 70° |
| 2026-04-24 16:20 | 45.96936 | -58.64482 | 32771 ft | 459 kts | 70° |
| 2026-04-24 16:20 | 46.00357 | -58.51611 | 32772 ft | 460 kts | 70° |
| 2026-04-24 16:21 | 46.03749 | -58.38776 | 32769 ft | 460 kts | 70° |
| 2026-04-24 16:22 | 46.06023 | -58.30135 | 32768 ft | 460 kts | 71° |
| 2026-04-24 16:22 | 46.09383 | -58.17307 | 32769 ft | 460 kts | 71° |
| 2026-04-24 16:23 | 46.11634 | -58.08670 | 32764 ft | 460 kts | 71° |
| 2026-04-24 16:24 | 46.14981 | -57.95776 | 32759 ft | 460 kts | 71° |
| 2026-04-24 16:24 | 46.17206 | -57.87163 | 32751 ft | 460 kts | 71° |
| 2026-04-24 16:25 | 46.19421 | -57.78554 | 32751 ft | 459 kts | 71° |
| 2026-04-24 16:25 | 46.21623 | -57.69965 | 32752 ft | 459 kts | 71° |
| 2026-04-24 16:26 | 46.24937 | -57.56980 | 32745 ft | 459 kts | 71° |
| 2026-04-24 16:27 | 46.28211 | -57.44080 | 32741 ft | 458 kts | 71° |
| 2026-04-24 16:27 | 46.30397 | -57.35427 | 32738 ft | 458 kts | 71° |
| 2026-04-24 16:28 | 46.32573 | -57.26776 | 32739 ft | 458 kts | 72° |
| 2026-04-24 16:28 | 46.35818 | -57.13818 | 32729 ft | 458 kts | 72° |
| 2026-04-24 16:29 | 46.37969 | -57.05191 | 32728 ft | 458 kts | 72° |
| 2026-04-24 16:30 | 46.42267 | -56.87846 | 32729 ft | 458 kts | 72° |
| 2026-04-24 16:30 | 46.44387 | -56.79243 | 32729 ft | 457 kts | 72° |
| 2026-04-24 16:31 | 46.46511 | -56.70588 | 32723 ft | 457 kts | 72° |
| 2026-04-24 16:31 | 46.48633 | -56.61913 | 32717 ft | 457 kts | 72° |
| 2026-04-24 16:32 | 46.50747 | -56.53233 | 32723 ft | 456 kts | 73° |
| 2026-04-24 16:32 | 46.52835 | -56.44624 | 32722 ft | 456 kts | 73° |
| 2026-04-24 16:33 | 46.54929 | -56.35961 | 32704 ft | 457 kts | 73° |
| 2026-04-24 16:33 | 46.57023 | -56.27262 | 32711 ft | 456 kts | 73° |
| 2026-04-24 16:34 | 46.59105 | -56.18579 | 32725 ft | 456 kts | 73° |
| 2026-04-24 16:34 | 46.61175 | -56.09914 | 32730 ft | 456 kts | 74° |
| 2026-04-24 16:35 | 46.63234 | -56.01260 | 32711 ft | 456 kts | 74° |
| 2026-04-24 16:35 | 46.65289 | -55.92588 | 32719 ft | 455 kts | 74° |
| 2026-04-24 16:36 | 46.67347 | -55.83868 | 32715 ft | 457 kts | 74° |
| 2026-04-24 16:36 | 46.69394 | -55.75162 | 32699 ft | 456 kts | 74° |
| 2026-04-24 16:37 | 46.71429 | -55.66472 | 32705 ft | 456 kts | 74° |
| 2026-04-24 16:37 | 46.73473 | -55.57710 | 32704 ft | 456 kts | 74° |
| 2026-04-24 16:38 | 46.75497 | -55.48995 | 32703 ft | 457 kts | 74° |
| 2026-04-24 16:38 | 46.77513 | -55.40283 | 32696 ft | 456 kts | 74° |
| 2026-04-24 16:39 | 46.79530 | -55.31527 | 32713 ft | 457 kts | 75° |
| 2026-04-24 16:39 | 46.81555 | -55.22706 | 32688 ft | 456 kts | 75° |
| 2026-04-24 16:40 | 46.83550 | -55.13978 | 32704 ft | 456 kts | 75° |
| 2026-04-24 16:40 | 46.85542 | -55.05225 | 32689 ft | 457 kts | 75° |
| 2026-04-24 16:41 | 46.87533 | -54.96444 | 32696 ft | 458 kts | 75° |
| 2026-04-24 16:41 | 46.89518 | -54.87654 | 32685 ft | 456 kts | 75° |
| 2026-04-24 16:42 | 46.91498 | -54.78846 | 32707 ft | 457 kts | 75° |
| 2026-04-24 16:42 | 46.93456 | -54.70104 | 32698 ft | 456 kts | 75° |
| 2026-04-24 16:43 | 46.95417 | -54.61307 | 32712 ft | 456 kts | 75° |
| 2026-04-24 16:43 | 46.97371 | -54.52508 | 32702 ft | 455 kts | 75° |
| 2026-04-24 16:44 | 46.99321 | -54.43691 | 32704 ft | 456 kts | 76° |
| 2026-04-24 16:44 | 47.01260 | -54.34884 | 32691 ft | 456 kts | 76° |
| 2026-04-24 16:45 | 47.03189 | -54.26083 | 32697 ft | 456 kts | 76° |
| 2026-04-24 16:45 | 47.05113 | -54.17275 | 32700 ft | 456 kts | 76° |
| 2026-04-24 16:46 | 47.07033 | -54.08445 | 32684 ft | 455 kts | 76° |
| 2026-04-24 16:46 | 47.08942 | -53.99624 | 32675 ft | 454 kts | 76° |
| 2026-04-24 16:47 | 47.10833 | -53.90851 | 32670 ft | 456 kts | 77° |
| 2026-04-24 16:47 | 47.12744 | -53.81952 | 32671 ft | 457 kts | 77° |
| 2026-04-24 16:48 | 47.14639 | -53.73083 | 32679 ft | 456 kts | 77° |
| 2026-04-24 16:48 | 47.16514 | -53.64272 | 32680 ft | 458 kts | 77° |
| 2026-04-24 16:49 | 47.18404 | -53.55351 | 32684 ft | 457 kts | 77° |
| 2026-04-24 16:49 | 47.20279 | -53.46462 | 32676 ft | 458 kts | 77° |
| 2026-04-24 16:50 | 47.22159 | -53.37512 | 32678 ft | 458 kts | 77° |
| 2026-04-24 16:50 | 47.24017 | -53.28630 | 32679 ft | 457 kts | 78° |
| 2026-04-24 16:51 | 47.25879 | -53.19687 | 32682 ft | 458 kts | 78° |
| 2026-04-24 16:51 | 47.27720 | -53.10802 | 32671 ft | 458 kts | 78° |
| 2026-04-24 16:52 | 47.29575 | -53.01810 | 32670 ft | 460 kts | 78° |
| 2026-04-24 16:52 | 47.31428 | -52.92791 | 32666 ft | 460 kts | 78° |
| 2026-04-24 16:53 | 47.33265 | -52.83808 | 32676 ft | 459 kts | 78° |
| 2026-04-24 16:53 | 47.35096 | -52.74813 | 32689 ft | 461 kts | 78° |
| 2026-04-24 16:54 | 47.36920 | -52.65813 | 32691 ft | 462 kts | 78° |
| 2026-04-24 16:54 | 47.38745 | -52.56764 | 32697 ft | 461 kts | 78° |
| 2026-04-24 16:55 | 47.40563 | -52.47712 | 32699 ft | 463 kts | 78° |
| 2026-04-24 16:55 | 47.42381 | -52.38614 | 32693 ft | 463 kts | 78° |
| 2026-04-24 16:56 | 47.44194 | -52.29499 | 32702 ft | 463 kts | 79° |
| 2026-04-24 16:56 | 47.45993 | -52.20414 | 32698 ft | 464 kts | 79° |
| 2026-04-24 16:57 | 47.47789 | -52.11303 | 32705 ft | 464 kts | 79° |
| 2026-04-24 16:57 | 47.49584 | -52.02159 | 32702 ft | 465 kts | 78° |
| 2026-04-24 16:58 | 47.51808 | -51.93186 | 32701 ft | 468 kts | 74° |
| 2026-04-24 16:58 | 47.54114 | -51.84248 | 32692 ft | 468 kts | 74° |
| 2026-04-24 16:59 | 47.56440 | -51.75236 | 32706 ft | 470 kts | 74° |
| 2026-04-24 17:00 | 47.59927 | -51.61697 | 32705 ft | 470 kts | 74° |
| 2026-04-24 17:00 | 47.63388 | -51.48175 | 32713 ft | 473 kts | 74° |
| 2026-04-24 17:01 | 47.66864 | -51.34524 | 32709 ft | 472 kts | 75° |
| 2026-04-24 17:02 | 47.70314 | -51.20891 | 32718 ft | 473 kts | 75° |
| 2026-04-24 17:02 | 47.72606 | -51.11787 | 32719 ft | 475 kts | 75° |
| 2026-04-24 17:03 | 47.76053 | -50.98027 | 32714 ft | 475 kts | 75° |
| 2026-04-24 17:04 | 47.78342 | -50.88844 | 32714 ft | 475 kts | 75° |
| 2026-04-24 17:04 | 47.81762 | -50.75053 | 32718 ft | 476 kts | 75° |
| 2026-04-24 17:05 | 47.84044 | -50.65802 | 32724 ft | 478 kts | 74° |
| 2026-04-24 17:06 | 47.87449 | -50.51928 | 32726 ft | 478 kts | 74° |
| 2026-04-24 17:06 | 47.90838 | -50.38030 | 32727 ft | 479 kts | 74° |
| 2026-04-24 17:07 | 47.93110 | -50.28670 | 32722 ft | 479 kts | 75° |
| 2026-04-24 17:08 | 47.97595 | -50.10067 | 32731 ft | 479 kts | 75° |
| 2026-04-24 17:08 | 47.99831 | -50.00732 | 32726 ft | 480 kts | 75° |
| 2026-04-24 17:09 | 48.04512 | -49.82100 | 32732 ft | 480 kts | 73° |
| 2026-04-24 17:10 | 48.09177 | -49.63413 | 32732 ft | 483 kts | 73° |
| 2026-04-24 17:12 | 48.18482 | -49.25676 | 32714 ft | 486 kts | 74° |
| 2026-04-24 18:54 | 52.14479 | -28.96923 | 32691 ft | 462 kts | 79° |
| 2026-04-24 18:55 | 52.16537 | -28.81667 | 32676 ft | 460 kts | 79° |
| 2026-04-24 18:56 | 52.17892 | -28.71536 | 32687 ft | 461 kts | 79° |
| 2026-04-24 18:56 | 52.19237 | -28.61405 | 32692 ft | 459 kts | 79° |
| 2026-04-24 18:57 | 52.20571 | -28.51289 | 32689 ft | 459 kts | 79° |
| 2026-04-24 18:57 | 52.21902 | -28.41128 | 32693 ft | 459 kts | 79° |
| 2026-04-24 18:58 | 52.23213 | -28.31044 | 32689 ft | 459 kts | 80° |
| 2026-04-24 18:58 | 52.24525 | -28.20882 | 32694 ft | 457 kts | 80° |
| 2026-04-24 18:59 | 52.25822 | -28.10754 | 32700 ft | 457 kts | 81° |
| 2026-04-24 18:59 | 52.27101 | -28.00703 | 32706 ft | 456 kts | 81° |
| 2026-04-24 19:00 | 52.28376 | -27.90598 | 32695 ft | 456 kts | 80° |
| 2026-04-24 19:00 | 52.29647 | -27.80463 | 32708 ft | 456 kts | 81° |
| 2026-04-24 19:01 | 52.30901 | -27.70389 | 32706 ft | 455 kts | 81° |
| 2026-04-24 19:01 | 52.32149 | -27.60283 | 32712 ft | 456 kts | 81° |
| 2026-04-24 19:02 | 52.33390 | -27.50160 | 32719 ft | 454 kts | 81° |
| 2026-04-24 19:02 | 52.34617 | -27.40078 | 32731 ft | 454 kts | 81° |
| 2026-04-24 19:03 | 52.35826 | -27.30060 | 32723 ft | 454 kts | 81° |
| 2026-04-24 19:03 | 52.37037 | -27.19959 | 32735 ft | 454 kts | 81° |
| 2026-04-24 19:04 | 52.38240 | -27.09846 | 32750 ft | 452 kts | 82° |
| 2026-04-24 19:04 | 52.39425 | -26.99796 | 32744 ft | 453 kts | 81° |
| 2026-04-24 19:05 | 52.40602 | -26.89751 | 32742 ft | 452 kts | 82° |
| 2026-04-24 19:05 | 52.41778 | -26.79627 | 32744 ft | 452 kts | 82° |
| 2026-04-24 19:06 | 52.42934 | -26.69600 | 32748 ft | 452 kts | 82° |
| 2026-04-24 19:06 | 52.44085 | -26.59536 | 32740 ft | 452 kts | 82° |
| 2026-04-24 19:07 | 52.45233 | -26.49412 | 32747 ft | 451 kts | 82° |
| 2026-04-24 19:07 | 52.46367 | -26.39336 | 32754 ft | 451 kts | 82° |
| 2026-04-24 19:08 | 52.47485 | -26.29326 | 32753 ft | 450 kts | 82° |
| 2026-04-24 19:08 | 52.48599 | -26.19262 | 32748 ft | 450 kts | 82° |
| 2026-04-24 19:09 | 52.49709 | -26.09157 | 32752 ft | 451 kts | 82° |
| 2026-04-24 19:09 | 52.50802 | -25.99120 | 32756 ft | 449 kts | 83° |
| 2026-04-24 19:10 | 52.51888 | -25.89071 | 32750 ft | 449 kts | 83° |
| 2026-04-24 19:10 | 52.52964 | -25.79027 | 32752 ft | 449 kts | 83° |
| 2026-04-24 19:11 | 52.54031 | -25.68973 | 32744 ft | 448 kts | 83° |
| 2026-04-24 19:11 | 52.55092 | -25.58904 | 32761 ft | 448 kts | 83° |
| 2026-04-24 19:12 | 52.56143 | -25.48842 | 32766 ft | 447 kts | 83° |
| 2026-04-24 19:12 | 52.57182 | -25.38804 | 32772 ft | 448 kts | 83° |
| 2026-04-24 19:13 | 52.58043 | -25.30417 | 32765 ft | 447 kts | 83° |
| 2026-04-24 19:13 | 52.59232 | -25.18747 | 32778 ft | 446 kts | 83° |
| 2026-04-24 19:14 | 52.60247 | -25.08682 | 32781 ft | 446 kts | 83° |
| 2026-04-24 19:14 | 52.61245 | -24.98697 | 32785 ft | 446 kts | 84° |
| 2026-04-24 19:15 | 52.62237 | -24.88685 | 32781 ft | 445 kts | 84° |
| 2026-04-24 19:15 | 52.63221 | -24.78664 | 32787 ft | 445 kts | 84° |
| 2026-04-24 19:16 | 52.64680 | -24.63641 | 32788 ft | 444 kts | 84° |
| 2026-04-24 19:16 | 52.65638 | -24.53661 | 32800 ft | 444 kts | 84° |
| 2026-04-24 19:17 | 52.66587 | -24.43680 | 32801 ft | 442 kts | 84° |
| 2026-04-24 19:17 | 52.67520 | -24.33776 | 32800 ft | 440 kts | 85° |
| 2026-04-24 19:18 | 52.68447 | -24.23828 | 32797 ft | 441 kts | 85° |
| 2026-04-24 19:18 | 52.69368 | -24.13875 | 32818 ft | 441 kts | 85° |
| 2026-04-24 19:19 | 52.70278 | -24.03943 | 32818 ft | 438 kts | 85° |
| 2026-04-24 19:19 | 52.71172 | -23.94084 | 32815 ft | 439 kts | 85° |
| 2026-04-24 19:20 | 52.72063 | -23.84163 | 32816 ft | 439 kts | 85° |
| 2026-04-24 19:20 | 52.72945 | -23.74253 | 32815 ft | 437 kts | 85° |
| 2026-04-24 19:21 | 52.73817 | -23.64352 | 32809 ft | 438 kts | 85° |
| 2026-04-24 19:21 | 52.74681 | -23.54461 | 32811 ft | 437 kts | 85° |
| 2026-04-24 19:22 | 52.75532 | -23.44608 | 32829 ft | 437 kts | 85° |
| 2026-04-24 19:22 | 52.76382 | -23.34671 | 32817 ft | 435 kts | 86° |
| 2026-04-24 19:23 | 52.77215 | -23.24829 | 32835 ft | 434 kts | 86° |
| 2026-04-24 19:23 | 52.78035 | -23.15032 | 32827 ft | 434 kts | 86° |
| 2026-04-24 19:24 | 52.78850 | -23.05213 | 32834 ft | 434 kts | 86° |
| 2026-04-24 19:24 | 52.79658 | -22.95364 | 32851 ft | 433 kts | 86° |
| 2026-04-24 19:25 | 52.80452 | -22.85587 | 32832 ft | 432 kts | 86° |
| 2026-04-24 19:25 | 52.81243 | -22.75735 | 32851 ft | 435 kts | 86° |
| 2026-04-24 19:26 | 52.82026 | -22.65900 | 32859 ft | 431 kts | 86° |
| 2026-04-24 19:26 | 52.82795 | -22.56123 | 32854 ft | 432 kts | 86° |
| 2026-04-24 19:27 | 52.83557 | -22.46320 | 32861 ft | 433 kts | 86° |
| 2026-04-24 19:27 | 52.84316 | -22.36468 | 32860 ft | 430 kts | 86° |
| 2026-04-24 19:28 | 52.85059 | -22.26698 | 32833 ft | 431 kts | 87° |
| 2026-04-24 19:28 | 52.85797 | -22.16891 | 32866 ft | 432 kts | 87° |
| 2026-04-24 19:29 | 52.86885 | -22.02235 | 32873 ft | 430 kts | 87° |
| 2026-04-24 19:30 | 52.87599 | -21.92465 | 32861 ft | 429 kts | 87° |
| 2026-04-24 19:30 | 52.88306 | -21.82706 | 32875 ft | 429 kts | 87° |
| 2026-04-24 19:31 | 52.89002 | -21.72960 | 32870 ft | 428 kts | 87° |
| 2026-04-24 19:31 | 52.89687 | -21.63260 | 32882 ft | 427 kts | 88° |
| 2026-04-24 19:32 | 52.90366 | -21.53503 | 32874 ft | 428 kts | 88° |
| 2026-04-24 19:32 | 52.91040 | -21.43751 | 32887 ft | 426 kts | 88° |
| 2026-04-24 19:33 | 52.91700 | -21.34052 | 32885 ft | 424 kts | 89° |
| 2026-04-24 19:33 | 52.92347 | -21.24428 | 32896 ft | 424 kts | 89° |
| 2026-04-24 19:34 | 52.92990 | -21.14741 | 32896 ft | 424 kts | 88° |
| 2026-04-24 19:34 | 52.93624 | -21.05090 | 32902 ft | 421 kts | 89° |
| 2026-04-24 19:35 | 52.94245 | -20.95507 | 32925 ft | 423 kts | 89° |
| 2026-04-24 19:35 | 52.94862 | -20.85850 | 32916 ft | 421 kts | 89° |
| 2026-04-24 19:36 | 52.95470 | -20.76228 | 32912 ft | 421 kts | 89° |
| 2026-04-24 19:36 | 52.96066 | -20.66661 | 32913 ft | 421 kts | 89° |
| 2026-04-24 19:37 | 52.96659 | -20.57003 | 32922 ft | 421 kts | 89° |
| 2026-04-24 19:37 | 52.97240 | -20.47439 | 32907 ft | 420 kts | 89° |
| 2026-04-24 19:38 | 52.97817 | -20.37785 | 32925 ft | 420 kts | 89° |
| 2026-04-24 19:38 | 52.98383 | -20.28201 | 32936 ft | 418 kts | 90° |
| 2026-04-24 19:39 | 52.98939 | -20.18650 | 32932 ft | 419 kts | 90° |
| 2026-04-24 19:39 | 52.99487 | -20.09088 | 32919 ft | 418 kts | 90° |
| 2026-04-24 19:40 | 53.00113 | -19.99514 | 32936 ft | 422 kts | 84° |
| 2026-04-24 19:40 | 53.02067 | -19.90268 | 32940 ft | 429 kts | 75° |
| 2026-04-24 19:41 | 53.04220 | -19.81068 | 32934 ft | 429 kts | 76° |
| 2026-04-24 19:41 | 53.06318 | -19.71817 | 32933 ft | 429 kts | 76° |
| 2026-04-24 19:42 | 53.08379 | -19.62596 | 32941 ft | 428 kts | 76° |
| 2026-04-24 19:42 | 53.10442 | -19.53296 | 32947 ft | 430 kts | 76° |
| 2026-04-24 19:43 | 53.12478 | -19.44068 | 32928 ft | 428 kts | 76° |
| 2026-04-24 19:43 | 53.14511 | -19.34810 | 32936 ft | 429 kts | 77° |
| 2026-04-24 19:44 | 53.16548 | -19.25489 | 32957 ft | 428 kts | 77° |
| 2026-04-24 19:44 | 53.18575 | -19.16173 | 32949 ft | 428 kts | 77° |
| 2026-04-24 19:45 | 53.20585 | -19.06887 | 32964 ft | 430 kts | 77° |
| 2026-04-24 19:45 | 53.22593 | -18.97574 | 32961 ft | 428 kts | 77° |
| 2026-04-24 19:46 | 53.24593 | -18.88258 | 32974 ft | 429 kts | 77° |
| 2026-04-24 19:46 | 53.26586 | -18.78924 | 32980 ft | 429 kts | 77° |
| 2026-04-24 19:47 | 53.28574 | -18.69583 | 32958 ft | 429 kts | 77° |
| 2026-04-24 19:47 | 53.30567 | -18.60162 | 32969 ft | 429 kts | 77° |
| 2026-04-24 19:48 | 53.32530 | -18.50848 | 32968 ft | 430 kts | 77° |
| 2026-04-24 19:48 | 53.35488 | -18.36729 | 32969 ft | 429 kts | 77° |
| 2026-04-24 19:49 | 53.39380 | -18.17992 | 32977 ft | 429 kts | 78° |
| 2026-04-24 19:50 | 53.43240 | -17.99241 | 32979 ft | 428 kts | 77° |
| 2026-04-24 19:51 | 53.46118 | -17.85140 | 32988 ft | 429 kts | 77° |
| 2026-04-24 19:52 | 53.48996 | -17.70942 | 32991 ft | 428 kts | 77° |
| 2026-04-24 19:52 | 53.50893 | -17.61521 | 32998 ft | 428 kts | 77° |
| 2026-04-24 19:53 | 53.52789 | -17.52068 | 32993 ft | 429 kts | 77° |
| 2026-04-24 19:54 | 53.55611 | -17.37907 | 33005 ft | 429 kts | 77° |
| 2026-04-24 19:54 | 53.57492 | -17.28411 | 33006 ft | 429 kts | 78° |
| 2026-04-24 19:55 | 53.59054 | -17.20488 | 33005 ft | 428 kts | 78° |
| 2026-04-24 19:55 | 53.61218 | -17.09460 | 33015 ft | 428 kts | 78° |
| 2026-04-24 19:56 | 53.63070 | -16.99966 | 33017 ft | 430 kts | 78° |
| 2026-04-24 19:56 | 53.64920 | -16.90445 | 33021 ft | 428 kts | 78° |
| 2026-04-24 19:57 | 53.66765 | -16.80898 | 33012 ft | 430 kts | 78° |
| 2026-04-24 19:57 | 53.68604 | -16.71336 | 33018 ft | 429 kts | 78° |
| 2026-04-24 19:58 | 53.70437 | -16.61754 | 33017 ft | 431 kts | 78° |
| 2026-04-24 19:58 | 53.72254 | -16.52210 | 33023 ft | 431 kts | 78° |
| 2026-04-24 19:59 | 53.74075 | -16.42594 | 33038 ft | 431 kts | 78° |
| 2026-04-24 19:59 | 53.75882 | -16.33006 | 33037 ft | 431 kts | 78° |
| 2026-04-24 20:00 | 53.77690 | -16.23360 | 33046 ft | 431 kts | 78° |
| 2026-04-24 20:00 | 53.79478 | -16.13773 | 33049 ft | 432 kts | 78° |
| 2026-04-24 20:01 | 53.81279 | -16.04069 | 33057 ft | 432 kts | 78° |
| 2026-04-24 20:01 | 53.83059 | -15.94425 | 33049 ft | 433 kts | 79° |
| 2026-04-24 20:02 | 53.84833 | -15.84765 | 33056 ft | 433 kts | 78° |
| 2026-04-24 20:02 | 53.86613 | -15.75017 | 33050 ft | 433 kts | 78° |
| 2026-04-24 20:03 | 53.88383 | -15.65278 | 33051 ft | 434 kts | 78° |
| 2026-04-24 20:03 | 53.90139 | -15.55564 | 33065 ft | 437 kts | 78° |
| 2026-04-24 20:04 | 53.91899 | -15.45776 | 33061 ft | 435 kts | 78° |
| 2026-04-24 20:04 | 53.93654 | -15.35960 | 33075 ft | 435 kts | 78° |
| 2026-04-24 20:05 | 53.95402 | -15.26131 | 33087 ft | 438 kts | 79° |
| 2026-04-24 20:05 | 53.97151 | -15.16246 | 33088 ft | 436 kts | 79° |
| 2026-04-24 20:06 | 53.98877 | -15.06431 | 33088 ft | 437 kts | 79° |
| 2026-04-24 20:06 | 53.99790 | -14.96456 | 33099 ft | 428 kts | 92° |
| 2026-04-24 20:07 | 53.99951 | -14.88062 | 33094 ft | 428 kts | 93° |
| 2026-04-24 20:07 | 54.00050 | -14.76345 | 33101 ft | 428 kts | 94° |
| 2026-04-24 20:08 | 54.00085 | -14.66191 | 33089 ft | 428 kts | 94° |
| 2026-04-24 20:08 | 54.00100 | -14.56169 | 33103 ft | 429 kts | 94° |
| 2026-04-24 20:09 | 54.00102 | -14.46013 | 33082 ft | 429 kts | 94° |
| 2026-04-24 20:09 | 54.00095 | -14.35929 | 33100 ft | 430 kts | 94° |
| 2026-04-24 20:10 | 54.00079 | -14.25816 | 33114 ft | 431 kts | 95° |
| 2026-04-24 20:10 | 54.00055 | -14.15660 | 33113 ft | 431 kts | 95° |
| 2026-04-24 20:11 | 54.00020 | -14.05499 | 33111 ft | 431 kts | 95° |
| 2026-04-24 20:11 | 53.98996 | -13.95652 | 33128 ft | 423 kts | 110° |
| 2026-04-24 20:12 | 53.97188 | -13.86177 | 33116 ft | 425 kts | 111° |
| 2026-04-24 20:12 | 53.95325 | -13.76738 | 33106 ft | 425 kts | 111° |
| 2026-04-24 20:13 | 53.93427 | -13.67285 | 33113 ft | 424 kts | 111° |
| 2026-04-24 20:13 | 53.91504 | -13.57785 | 33111 ft | 426 kts | 111° |
| 2026-04-24 20:14 | 53.89581 | -13.48340 | 33116 ft | 426 kts | 111° |
| 2026-04-24 20:14 | 53.87654 | -13.38928 | 33128 ft | 427 kts | 111° |
| 2026-04-24 20:15 | 53.85703 | -13.29441 | 33126 ft | 427 kts | 112° |
| 2026-04-24 20:15 | 53.83750 | -13.19996 | 33135 ft | 429 kts | 112° |
| 2026-04-24 20:16 | 53.81776 | -13.10492 | 33136 ft | 428 kts | 112° |
| 2026-04-24 20:16 | 53.79808 | -13.01056 | 33131 ft | 429 kts | 112° |
| 2026-04-24 20:17 | 53.77809 | -12.91522 | 33135 ft | 430 kts | 112° |
| 2026-04-24 20:17 | 53.74818 | -12.77338 | 33134 ft | 430 kts | 112° |
| 2026-04-24 20:18 | 53.72808 | -12.67861 | 33143 ft | 431 kts | 112° |
| 2026-04-24 20:18 | 53.70787 | -12.58376 | 33134 ft | 430 kts | 112° |
| 2026-04-24 20:19 | 53.68767 | -12.48944 | 33141 ft | 432 kts | 112° |
| 2026-04-24 20:19 | 53.66716 | -12.39406 | 33141 ft | 432 kts | 112° |
| 2026-04-24 20:20 | 53.64663 | -12.29912 | 33152 ft | 431 kts | 113° |
| 2026-04-24 20:20 | 53.62619 | -12.20494 | 33143 ft | 432 kts | 113° |
| 2026-04-24 20:21 | 53.60553 | -12.11025 | 33159 ft | 435 kts | 113° |
| 2026-04-24 20:21 | 53.58470 | -12.01517 | 33156 ft | 432 kts | 114° |
| 2026-04-24 20:22 | 53.56391 | -11.92071 | 33155 ft | 433 kts | 113° |
| 2026-04-24 20:22 | 53.54298 | -11.82609 | 33159 ft | 436 kts | 114° |
| 2026-04-24 20:23 | 53.52173 | -11.73038 | 33151 ft | 435 kts | 114° |
| 2026-04-24 20:23 | 53.50066 | -11.63600 | 33152 ft | 437 kts | 114° |
| 2026-04-24 20:24 | 53.47926 | -11.54050 | 33147 ft | 438 kts | 113° |
| 2026-04-24 20:24 | 53.45779 | -11.44516 | 33152 ft | 439 kts | 114° |
| 2026-04-24 20:25 | 53.43617 | -11.34958 | 33147 ft | 439 kts | 114° |
| 2026-04-24 20:25 | 53.41451 | -11.25430 | 33147 ft | 439 kts | 114° |
| 2026-04-24 20:26 | 53.39272 | -11.15883 | 33154 ft | 441 kts | 114° |
| 2026-04-24 20:26 | 53.37091 | -11.06370 | 33145 ft | 442 kts | 114° |
| 2026-04-24 20:27 | 53.34893 | -10.96825 | 33140 ft | 441 kts | 114° |
| 2026-04-24 20:27 | 53.32689 | -10.87303 | 33148 ft | 442 kts | 114° |
| 2026-04-24 20:28 | 53.30457 | -10.77702 | 33148 ft | 444 kts | 114° |
| 2026-04-24 20:28 | 53.28231 | -10.68163 | 33143 ft | 444 kts | 114° |
| 2026-04-24 20:29 | 53.25988 | -10.58598 | 33149 ft | 445 kts | 114° |
| 2026-04-24 20:29 | 53.23740 | -10.49057 | 33145 ft | 444 kts | 114° |
| 2026-04-24 20:30 | 53.21476 | -10.39489 | 33149 ft | 446 kts | 114° |
| 2026-04-24 20:30 | 53.19185 | -10.29846 | 33151 ft | 445 kts | 115° |
| 2026-04-24 20:31 | 53.16886 | -10.20217 | 33152 ft | 445 kts | 115° |
| 2026-04-24 20:31 | 53.14608 | -10.10715 | 33152 ft | 447 kts | 115° |
| 2026-04-24 20:32 | 53.12292 | -10.01098 | 33150 ft | 446 kts | 115° |
| 2026-04-24 20:32 | 53.09988 | -9.91575 | 33148 ft | 447 kts | 115° |
| 2026-04-24 20:33 | 53.07669 | -9.82029 | 33152 ft | 449 kts | 115° |
| 2026-04-24 20:33 | 53.05321 | -9.72407 | 33153 ft | 450 kts | 115° |
| 2026-04-24 20:34 | 53.02978 | -9.62848 | 33158 ft | 451 kts | 115° |
| 2026-04-24 20:34 | 53.00579 | -9.53219 | 33160 ft | 451 kts | 115° |
| 2026-04-24 20:35 | 52.98133 | -9.43675 | 33159 ft | 452 kts | 115° |
| 2026-04-24 20:35 | 52.95685 | -9.34159 | 33161 ft | 453 kts | 116° |
| 2026-04-24 20:36 | 52.93211 | -9.24582 | 33168 ft | 453 kts | 116° |
| 2026-04-24 20:36 | 52.90722 | -9.14984 | 33165 ft | 454 kts | 116° |
| 2026-04-24 20:37 | 52.88236 | -9.05446 | 33178 ft | 455 kts | 116° |
| 2026-04-24 20:37 | 52.85726 | -8.95849 | 33180 ft | 455 kts | 116° |
| 2026-04-24 20:38 | 52.83220 | -8.86311 | 33182 ft | 455 kts | 116° |
| 2026-04-24 20:38 | 52.80698 | -8.76753 | 33188 ft | 456 kts | 116° |
| 2026-04-24 20:39 | 52.78169 | -8.67206 | 33187 ft | 456 kts | 116° |
| 2026-04-24 20:39 | 52.75624 | -8.57641 | 33192 ft | 456 kts | 116° |
| 2026-04-24 20:40 | 52.73066 | -8.48067 | 33192 ft | 456 kts | 116° |
| 2026-04-24 20:40 | 52.70506 | -8.38524 | 33197 ft | 457 kts | 116° |
| 2026-04-24 20:41 | 52.67948 | -8.29029 | 33200 ft | 457 kts | 117° |
| 2026-04-24 20:41 | 52.65373 | -8.19511 | 33200 ft | 456 kts | 117° |
| 2026-04-24 20:42 | 52.62790 | -8.10004 | 33205 ft | 457 kts | 117° |
| 2026-04-24 20:42 | 52.60195 | -8.00488 | 33207 ft | 458 kts | 117° |
| 2026-04-24 20:43 | 52.57576 | -7.90928 | 33205 ft | 458 kts | 117° |
| 2026-04-24 20:43 | 52.54968 | -7.81446 | 33209 ft | 460 kts | 117° |
| 2026-04-24 20:44 | 52.52324 | -7.71870 | 33204 ft | 460 kts | 117° |
| 2026-04-24 20:44 | 52.49694 | -7.62328 | 33208 ft | 461 kts | 116° |
| 2026-04-24 20:45 | 52.47110 | -7.52746 | 33215 ft | 462 kts | 116° |
| 2026-04-24 20:45 | 52.44505 | -7.43135 | 33213 ft | 463 kts | 116° |
| 2026-04-24 20:46 | 52.41898 | -7.33561 | 33220 ft | 463 kts | 117° |
| 2026-04-24 20:46 | 52.39272 | -7.23954 | 33219 ft | 463 kts | 117° |
| 2026-04-24 20:47 | 52.36643 | -7.14381 | 33232 ft | 464 kts | 116° |
| 2026-04-24 20:47 | 52.33995 | -7.04774 | 33241 ft | 465 kts | 116° |
| 2026-04-24 20:48 | 52.31334 | -6.95161 | 33235 ft | 465 kts | 116° |
| 2026-04-24 20:48 | 52.28667 | -6.85566 | 33234 ft | 466 kts | 116° |
| 2026-04-24 20:49 | 52.25992 | -6.75981 | 33234 ft | 466 kts | 116° |
| 2026-04-24 20:49 | 52.23304 | -6.66391 | 33240 ft | 468 kts | 116° |
| 2026-04-24 20:50 | 52.20616 | -6.56836 | 33243 ft | 468 kts | 116° |
| 2026-04-24 20:50 | 52.17884 | -6.47171 | 33240 ft | 468 kts | 116° |
| 2026-04-24 20:51 | 52.15176 | -6.37624 | 33242 ft | 469 kts | 116° |
| 2026-04-24 20:51 | 52.12423 | -6.27960 | 33236 ft | 470 kts | 117° |
| 2026-04-24 20:52 | 52.09685 | -6.18387 | 33239 ft | 470 kts | 117° |
| 2026-04-24 20:52 | 52.06939 | -6.08826 | 33240 ft | 471 kts | 117° |
| 2026-04-24 20:53 | 52.04203 | -5.99203 | 33235 ft | 471 kts | 116° |
| 2026-04-24 20:53 | 52.01494 | -5.89561 | 33233 ft | 472 kts | 116° |
| 2026-04-24 20:54 | 51.98748 | -5.79832 | 33226 ft | 473 kts | 116° |
| 2026-04-24 20:54 | 51.96011 | -5.70178 | 33227 ft | 473 kts | 116° |
| 2026-04-24 20:55 | 51.93274 | -5.60565 | 33232 ft | 474 kts | 116° |
| 2026-04-24 20:55 | 51.90521 | -5.50930 | 33235 ft | 474 kts | 116° |
| 2026-04-24 20:56 | 51.87752 | -5.41283 | 33232 ft | 475 kts | 116° |
| 2026-04-24 20:56 | 51.84961 | -5.31595 | 33228 ft | 475 kts | 117° |
| 2026-04-24 20:57 | 51.82163 | -5.21926 | 33222 ft | 475 kts | 117° |
| 2026-04-24 20:57 | 51.79359 | -5.12275 | 33227 ft | 476 kts | 117° |
| 2026-04-24 20:58 | 51.76637 | -5.02584 | 33225 ft | 476 kts | 114° |
| 2026-04-24 20:58 | 51.74060 | -4.92734 | 33229 ft | 477 kts | 114° |
| 2026-04-24 20:59 | 51.71474 | -4.82932 | 33228 ft | 477 kts | 114° |
| 2026-04-24 20:59 | 51.68866 | -4.73094 | 33231 ft | 479 kts | 114° |
| 2026-04-24 21:00 | 51.66238 | -4.63223 | 33225 ft | 478 kts | 114° |
| 2026-04-24 21:00 | 51.63616 | -4.53419 | 33223 ft | 479 kts | 114° |
| 2026-04-24 21:01 | 51.60994 | -4.43655 | 33229 ft | 480 kts | 114° |
| 2026-04-24 21:01 | 51.58343 | -4.33825 | 33230 ft | 480 kts | 115° |
| 2026-04-24 21:02 | 51.55690 | -4.24030 | 33219 ft | 479 kts | 115° |
| 2026-04-24 21:02 | 51.53817 | -4.13802 | 33237 ft | 483 kts | 101° |
| 2026-04-24 21:03 | 51.52605 | -4.03237 | 33228 ft | 484 kts | 101° |
| 2026-04-24 21:03 | 51.51395 | -3.92631 | 33214 ft | 476 kts | 101° |
| 2026-04-24 21:04 | 51.50811 | -3.87509 | 33188 ft | 464 kts | 101° |
| 2026-04-24 21:04 | 51.50238 | -3.82509 | 33057 ft | 453 kts | 101° |
| 2026-04-24 21:04 | 51.49672 | -3.77582 | 32755 ft | 446 kts | 101° |
| 2026-04-24 21:04 | 51.49121 | -3.72800 | 32465 ft | 435 kts | 101° |
| 2026-04-24 21:05 | 51.48571 | -3.68053 | 32185 ft | 431 kts | 101° |
| 2026-04-24 21:05 | 51.48036 | -3.63361 | 31932 ft | 437 kts | 99° |
| 2026-04-24 21:05 | 51.47700 | -3.58489 | 31690 ft | 444 kts | 95° |
| 2026-04-24 21:05 | 51.47412 | -3.53568 | 31430 ft | 445 kts | 95° |
| 2026-04-24 21:06 | 51.47119 | -3.48632 | 31159 ft | 442 kts | 95° |
| 2026-04-24 21:06 | 51.46833 | -3.43791 | 30887 ft | 438 kts | 95° |
| 2026-04-24 21:06 | 51.46549 | -3.38975 | 30623 ft | 436 kts | 95° |
| 2026-04-24 21:06 | 51.46262 | -3.34138 | 30349 ft | 436 kts | 96° |
| 2026-04-24 21:07 | 51.45972 | -3.29288 | 29932 ft | 439 kts | 96° |
| 2026-04-24 21:07 | 51.45684 | -3.24502 | 29519 ft | 437 kts | 96° |
| 2026-04-24 21:07 | 51.45390 | -3.19639 | 29091 ft | 432 kts | 96° |
| 2026-04-24 21:07 | 51.45104 | -3.14944 | 28677 ft | 426 kts | 96° |
| 2026-04-24 21:08 | 51.44818 | -3.10276 | 28267 ft | 422 kts | 96° |
| 2026-04-24 21:08 | 51.44532 | -3.05636 | 27868 ft | 420 kts | 96° |
| 2026-04-24 21:08 | 51.44244 | -3.01014 | 27470 ft | 418 kts | 96° |
| 2026-04-24 21:08 | 51.43953 | -2.96359 | 27066 ft | 417 kts | 96° |
| 2026-04-24 21:09 | 51.43659 | -2.91687 | 26688 ft | 433 kts | 96° |
| 2026-04-24 21:09 | 51.43354 | -2.86873 | 26553 ft | 434 kts | 96° |
| 2026-04-24 21:09 | 51.43048 | -2.82075 | 26067 ft | 442 kts | 96° |
| 2026-04-24 21:09 | 51.42732 | -2.77149 | 25550 ft | 450 kts | 96° |
| 2026-04-24 21:10 | 51.42411 | -2.72180 | 25054 ft | 446 kts | 96° |
| 2026-04-24 21:10 | 51.42096 | -2.67334 | 24589 ft | 440 kts | 96° |
| 2026-04-24 21:10 | 51.41779 | -2.62484 | 24106 ft | 435 kts | 96° |
| 2026-04-24 21:10 | 51.41466 | -2.57740 | 23633 ft | 431 kts | 96° |
| 2026-04-24 21:11 | 51.41150 | -2.52965 | 23200 ft | 426 kts | 96° |
| 2026-04-24 21:11 | 51.40839 | -2.48297 | 22768 ft | 422 kts | 96° |
| 2026-04-24 21:11 | 51.40531 | -2.43714 | 22349 ft | 417 kts | 96° |
| 2026-04-24 21:11 | 51.40221 | -2.39126 | 21928 ft | 413 kts | 96° |
| 2026-04-24 21:12 | 51.39911 | -2.34560 | 21494 ft | 410 kts | 97° |
| 2026-04-24 21:12 | 51.39605 | -2.30083 | 21078 ft | 407 kts | 97° |
| 2026-04-24 21:12 | 51.39298 | -2.25616 | 20651 ft | 403 kts | 97° |
| 2026-04-24 21:12 | 51.38993 | -2.21197 | 20251 ft | 398 kts | 97° |
| 2026-04-24 21:13 | 51.38688 | -2.16790 | 19828 ft | 393 kts | 98° |
| 2026-04-24 21:13 | 51.38388 | -2.12507 | 19436 ft | 392 kts | 98° |
| 2026-04-24 21:13 | 51.38082 | -2.08161 | 19081 ft | 396 kts | 98° |
| 2026-04-24 21:13 | 51.37772 | -2.03777 | 18443 ft | 405 kts | 98° |
| 2026-04-24 21:14 | 51.37456 | -1.99322 | 18181 ft | 393 kts | 98° |
| 2026-04-24 21:14 | 51.37152 | -1.95059 | 17919 ft | 388 kts | 98° |
| 2026-04-24 21:14 | 51.36842 | -1.90751 | 17446 ft | 391 kts | 98° |
| 2026-04-24 21:14 | 51.36534 | -1.86467 | 16980 ft | 388 kts | 98° |
| 2026-04-24 21:15 | 51.36228 | -1.82251 | 16508 ft | 382 kts | 98° |
| 2026-04-24 21:15 | 51.35920 | -1.78025 | 16065 ft | 376 kts | 98° |
| 2026-04-24 21:15 | 51.35621 | -1.73946 | 15685 ft | 371 kts | 98° |
| 2026-04-24 21:15 | 51.35321 | -1.69863 | 15343 ft | 367 kts | 98° |
| 2026-04-24 21:16 | 51.35024 | -1.65857 | 14990 ft | 367 kts | 98° |
| 2026-04-24 21:16 | 51.34724 | -1.61825 | 14489 ft | 369 kts | 98° |
| 2026-04-24 21:16 | 51.34422 | -1.57777 | 14241 ft | 357 kts | 98° |
| 2026-04-24 21:16 | 51.34132 | -1.53895 | 14149 ft | 355 kts | 98° |
| 2026-04-24 21:17 | 51.33833 | -1.49951 | 13852 ft | 364 kts | 98° |
| 2026-04-24 21:17 | 51.33531 | -1.45954 | 13510 ft | 361 kts | 97° |
| 2026-04-24 21:17 | 51.33231 | -1.42012 | 13182 ft | 354 kts | 97° |
| 2026-04-24 21:17 | 51.32938 | -1.38165 | 12914 ft | 351 kts | 97° |
| 2026-04-24 21:18 | 51.32639 | -1.34278 | 12667 ft | 352 kts | 98° |
| 2026-04-24 21:18 | 51.32343 | -1.30440 | 12386 ft | 352 kts | 98° |
| 2026-04-24 21:18 | 51.32045 | -1.26589 | 12099 ft | 342 kts | 98° |
| 2026-04-24 21:18 | 51.31761 | -1.22923 | 12052 ft | 326 kts | 98° |
| 2026-04-24 21:19 | 51.31486 | -1.19397 | 12020 ft | 311 kts | 98° |
| 2026-04-24 21:19 | 51.31299 | -1.16037 | 11916 ft | 301 kts | 92° |
| 2026-04-24 21:19 | 51.31276 | -1.12746 | 11585 ft | 298 kts | 92° |
| 2026-04-24 21:19 | 51.31244 | -1.09449 | 11323 ft | 293 kts | 92° |
| 2026-04-24 21:20 | 51.31185 | -1.03040 | 10800 ft | 289 kts | 92° |
| 2026-04-24 21:20 | 51.31155 | -0.99834 | 10545 ft | 288 kts | 92° |
| 2026-04-24 21:20 | 51.31124 | -0.96657 | 10319 ft | 286 kts | 92° |
| 2026-04-24 21:21 | 51.31093 | -0.93492 | 10116 ft | 286 kts | 92° |
| 2026-04-24 21:21 | 51.31060 | -0.90297 | 9925 ft | 285 kts | 92° |
| 2026-04-24 21:21 | 51.31028 | -0.87168 | 9747 ft | 285 kts | 92° |
| 2026-04-24 21:21 | 51.30994 | -0.84010 | 9569 ft | 284 kts | 91° |
| 2026-04-24 21:22 | 51.30960 | -0.80880 | 9396 ft | 283 kts | 91° |
| 2026-04-24 21:22 | 51.30925 | -0.77749 | 9257 ft | 280 kts | 91° |
| 2026-04-24 21:22 | 51.30889 | -0.74621 | 9118 ft | 282 kts | 91° |
| 2026-04-24 21:22 | 51.30852 | -0.71481 | 8778 ft | 286 kts | 91° |
| 2026-04-24 21:23 | 51.30814 | -0.68307 | 8380 ft | 287 kts | 91° |
| 2026-04-24 21:23 | 51.30775 | -0.65139 | 7948 ft | 289 kts | 91° |
| 2026-04-24 21:23 | 51.30735 | -0.61941 | 7591 ft | 286 kts | 91° |
| 2026-04-24 21:23 | 51.30696 | -0.58836 | 7575 ft | 270 kts | 91° |
| 2026-04-24 21:24 | 51.30657 | -0.55874 | 7257 ft | 261 kts | 91° |
| 2026-04-24 21:24 | 51.30689 | -0.53077 | 7247 ft | 252 kts | 78° |
| 2026-04-24 21:24 | 51.31441 | -0.50472 | 7261 ft | 266 kts | 50° |
| 2026-04-24 21:24 | 51.32912 | -0.48671 | 7011 ft | 272 kts | 21° |
| 2026-04-24 21:25 | 51.34739 | -0.48255 | 7033 ft | 265 kts | 352° |
| 2026-04-24 21:25 | 51.36461 | -0.49315 | 7051 ft | 273 kts | 323° |
| 2026-04-24 21:25 | 51.37706 | -0.51626 | 7046 ft | 277 kts | 294° |
| 2026-04-24 21:25 | 51.38126 | -0.54591 | 7041 ft | 276 kts | 265° |
| 2026-04-24 21:26 | 51.37951 | -0.57646 | 6951 ft | 279 kts | 268° |
| 2026-04-24 21:26 | 51.37961 | -0.60758 | 6580 ft | 281 kts | 270° |
| 2026-04-24 21:26 | 51.37999 | -0.63817 | 6203 ft | 274 kts | 270° |
| 2026-04-24 21:26 | 51.38037 | -0.66871 | 5819 ft | 272 kts | 271° |
| 2026-04-24 21:27 | 51.38071 | -0.69870 | 5452 ft | 272 kts | 270° |
| 2026-04-24 21:27 | 51.38103 | -0.72868 | 5088 ft | 270 kts | 270° |
| 2026-04-24 21:27 | 51.38134 | -0.75805 | 4976 ft | 253 kts | 270° |
| 2026-04-24 21:27 | 51.38163 | -0.78512 | 4988 ft | 233 kts | 271° |
| 2026-04-24 21:28 | 51.38188 | -0.80964 | 5018 ft | 212 kts | 271° |
| 2026-04-24 21:28 | 51.38213 | -0.83258 | 5026 ft | 200 kts | 271° |
| 2026-04-24 21:28 | 51.38238 | -0.85500 | 5004 ft | 203 kts | 271° |
| 2026-04-24 21:28 | 51.38500 | -0.87688 | 4992 ft | 204 kts | 301° |
| 2026-04-24 21:29 | 51.39505 | -0.89207 | 5028 ft | 200 kts | 340° |
| 2026-04-24 21:29 | 51.40848 | -0.89583 | 5037 ft | 198 kts | 0° |
| 2026-04-24 21:29 | 51.42233 | -0.89663 | 4997 ft | 197 kts | 1° |
| 2026-04-24 21:29 | 51.43573 | -0.89742 | 4995 ft | 193 kts | 3° |
| 2026-04-24 21:30 | 51.44867 | -0.89172 | 4784 ft | 197 kts | 37° |
| 2026-04-24 21:30 | 51.45890 | -0.87760 | 4456 ft | 194 kts | 46° |
| 2026-04-24 21:30 | 51.46861 | -0.86278 | 4087 ft | 192 kts | 47° |
| 2026-04-24 21:30 | 51.47427 | -0.84515 | 3946 ft | 171 kts | 86° |
| 2026-04-24 21:31 | 51.47461 | -0.82727 | 3977 ft | 156 kts | 88° |
| 2026-04-24 21:31 | 51.47507 | -0.80983 | 3994 ft | 159 kts | 88° |
| 2026-04-24 21:31 | 51.47546 | -0.79143 | 3810 ft | 166 kts | 88° |
| 2026-04-24 21:31 | 51.47577 | -0.77320 | 3583 ft | 161 kts | 88° |
| 2026-04-24 21:32 | 51.47601 | -0.75566 | 3362 ft | 156 kts | 88° |
| 2026-04-24 21:32 | 51.47621 | -0.73833 | 3154 ft | 155 kts | 89° |
| 2026-04-24 21:32 | 51.47637 | -0.72118 | 2955 ft | 155 kts | 89° |
| 2026-04-24 21:32 | 51.47651 | -0.70379 | 2755 ft | 156 kts | 89° |
| 2026-04-24 21:33 | 51.47664 | -0.68644 | 2550 ft | 156 kts | 89° |
| 2026-04-24 21:33 | 51.47675 | -0.66911 | 2332 ft | 152 kts | 88° |
| 2026-04-24 21:33 | 51.47684 | -0.65261 | 2163 ft | 149 kts | 88° |
| 2026-04-24 21:33 | 51.47694 | -0.63558 | 1969 ft | 153 kts | 88° |
| 2026-04-24 21:34 | 51.47702 | -0.61860 | 1757 ft | 152 kts | 88° |
| 2026-04-24 21:34 | 51.47709 | -0.60169 | 1542 ft | 152 kts | 88° |
| 2026-04-24 21:34 | 51.47717 | -0.58486 | 1356 ft | 149 kts | 89° |
| 2026-04-24 21:34 | 51.47723 | -0.56862 | 1155 ft | 137 kts | 89° |
| 2026-04-24 21:35 | 51.47727 | -0.55379 | 936 ft | 131 kts | 87° |
| 2026-04-24 21:35 | 51.47734 | -0.53891 | 781 ft | 133 kts | 89° |
| 2026-04-24 21:35 | 51.47741 | -0.52377 | 599 ft | 135 kts | 89° |
| 2026-04-24 21:35 | 51.47745 | -0.50894 | 418 ft | 134 kts | 89° |
| 2026-04-24 21:36 | 51.47748 | -0.49366 | 236 ft | 140 kts | 88° |
| 2026-04-24 21:36 | 51.47749 | -0.47836 | 96 ft | 133 kts | 87° |
| 2026-04-24 21:36 | 51.47755 | -0.46586 | 95 ft | 82 kts | 89° |
| 2026-04-24 21:36 | 51.47758 | -0.45764 | 95 ft | 58 kts | 88° |
| 2026-04-24 21:37 | 51.47704 | -0.45480 | 95 ft | 11 kts | 162° |
| 2026-04-24 21:37 | 51.47678 | -0.45471 | 95 ft | 0 kts | 171° |
| 2026-04-24 21:37 | 51.47656 | -0.45467 | 95 ft | 4 kts | 176° |
| 2026-04-24 21:37 | 51.47614 | -0.45467 | 95 ft | 6 kts | 180° |
| 2026-04-24 21:38 | 51.47563 | -0.45466 | 95 ft | 7 kts | 178° |
| 2026-04-24 21:38 | 51.47518 | -0.45432 | 95 ft | 7 kts | 124° |
| 2026-04-24 21:38 | 51.47507 | -0.45355 | 95 ft | 7 kts | 90° |
| 2026-04-24 21:38 | 51.47507 | -0.45270 | 95 ft | 8 kts | 89° |
| 2026-04-24 21:39 | 51.47508 | -0.45173 | 95 ft | 8 kts | 89° |
| 2026-04-24 21:39 | 51.47509 | -0.45070 | 95 ft | 9 kts | 89° |
| 2026-04-24 21:39 | 51.47509 | -0.44958 | 95 ft | 10 kts | 89° |
| 2026-04-24 21:39 | 51.47509 | -0.44886 | 95 ft | 0 kts | 89° |
| 2026-04-24 21:40 | 51.47509 | -0.44821 | 95 ft | 9 kts | 89° |
| 2026-04-24 21:40 | 51.47510 | -0.44712 | 95 ft | 10 kts | 89° |
| 2026-04-24 21:41 | 51.47503 | -0.44601 | 95 ft | 10 kts | 96° |
| 2026-04-24 21:41 | 51.47502 | -0.44476 | 95 ft | 12 kts | 89° |
| 2026-04-24 21:41 | 51.47503 | -0.44336 | 95 ft | 12 kts | 89° |
| 2026-04-24 21:41 | 51.47503 | -0.44192 | 95 ft | 13 kts | 89° |
| 2026-04-24 21:42 | 51.47486 | -0.44072 | 95 ft | 9 kts | 144° |
| 2026-04-24 21:42 | 51.47416 | -0.44060 | 95 ft | 10 kts | 180° |
| 2026-04-24 21:42 | 51.47355 | -0.44067 | 95 ft | 6 kts | 204° |
| 2026-04-24 21:42 | 51.47339 | -0.44123 | 95 ft | 6 kts | 266° |
| 2026-04-24 21:43 | 51.47340 | -0.44195 | 95 ft | 5 kts | 270° |
| 2026-04-24 21:43 | 51.47340 | -0.44205 | 95 ft | 0 kts | 269° |